createdAt,value
2023-03-27T00:00:10.601Z,10.53
2023-03-27T00:04:12.739Z,8.13
2023-03-27T00:08:15.493Z,8.80
2023-03-27T00:12:16.651Z,7.40
2023-03-27T00:16:19.571Z,6.60
2023-03-27T00:20:22.366Z,8.27
2023-03-27T00:24:23.515Z,7.93
2023-03-27T00:28:27.476Z,6.43
2023-03-27T00:32:28.615Z,6.83
2023-03-27T00:36:30.563Z,7.83
2023-03-27T00:40:31.911Z,6.83
2023-03-27T00:44:33.960Z,6.43
2023-03-27T00:48:37.034Z,6.07
2023-03-27T00:52:41.779Z,5.93
2023-03-27T00:56:44.825Z,8.13
2023-03-27T01:00:49.626Z,4.00
2023-03-27T01:04:52.540Z,4.67
2023-03-27T01:08:53.889Z,5.30
2023-03-27T01:13:24.082Z,5.30
2023-03-27T01:17:37.369Z,3.73
2023-03-27T01:22:05.089Z,3.93
2023-03-27T01:26:35.649Z,4.27
2023-03-27T01:30:39.106Z,4.10
2023-03-27T01:35:03.581Z,3.93
2023-03-27T01:39:18.318Z,3.90
2023-03-27T01:43:28.818Z,4.43
2023-03-27T01:47:51.624Z,4.43
2023-03-27T01:51:56.441Z,4.43
2023-03-27T01:56:01.442Z,4.33
2023-03-27T02:00:18.759Z,5.37
2023-03-27T02:04:21.155Z,3.63
2023-03-27T02:08:49.838Z,3.90
2023-03-27T02:13:00.885Z,4.20
2023-03-27T02:17:07.051Z,5.80
2023-03-27T02:21:08.252Z,4.63
2023-03-27T02:25:25.166Z,7.53
2023-03-27T02:29:33.064Z,4.90
2023-03-27T02:33:52.948Z,3.70
2023-03-27T02:38:16.696Z,4.90
2023-03-27T02:42:24.801Z,3.97
2023-03-27T02:46:38.441Z,4.57
2023-03-27T02:51:10.034Z,4.27
2023-03-27T02:55:14.856Z,3.93
2023-03-27T02:59:19.556Z,5.80
2023-03-27T03:03:27.481Z,4.67
2023-03-27T03:07:28.718Z,6.20
2023-03-27T03:11:30.450Z,3.43
2023-03-27T03:15:31.545Z,4.80
2023-03-27T03:19:32.623Z,3.87
2023-03-27T03:23:33.732Z,4.53
2023-03-27T03:27:34.926Z,3.43
2023-03-27T03:31:44.869Z,4.20
2023-03-27T03:35:50.088Z,4.97
2023-03-27T03:39:51.528Z,3.93
2023-03-27T03:43:52.775Z,5.60
2023-03-27T03:47:53.865Z,3.23
2023-03-27T03:52:03.858Z,3.63
2023-03-27T03:55:59.731Z,3.37
2023-03-27T04:00:00.811Z,4.30
2023-03-27T04:04:02.160Z,3.77
2023-03-27T04:08:06.613Z,4.57
2023-03-27T04:12:07.800Z,4.53
2023-03-27T04:16:09.231Z,3.47
2023-03-27T04:20:14.504Z,3.70
2023-03-27T04:24:17.550Z,3.73
2023-03-27T04:28:20.740Z,4.07
2023-03-27T04:32:21.969Z,4.60
2023-03-27T04:36:23.741Z,3.33
2023-03-27T04:40:25.046Z,6.57
2023-03-27T04:44:26.183Z,3.67
2023-03-27T04:48:27.192Z,4.10
2023-03-27T04:52:29.011Z,3.60
2023-03-27T04:56:33.064Z,3.10
2023-03-27T05:00:34.469Z,3.83
2023-03-27T05:04:35.375Z,4.60
2023-03-27T05:08:36.576Z,4.10
2023-03-27T05:12:46.130Z,3.77
2023-03-27T05:16:51.744Z,4.33
2023-03-27T05:20:52.790Z,4.63
2023-03-27T05:24:53.783Z,6.60
2023-03-27T05:28:55.228Z,3.57
2023-03-27T05:32:58.201Z,7.83
2023-03-27T05:37:01.187Z,5.13
2023-03-27T05:41:03.570Z,7.93
2023-03-27T05:45:05.122Z,6.83
2023-03-27T05:49:06.119Z,6.40
2023-03-27T05:53:10.731Z,4.37
2023-03-27T05:57:12.009Z,4.87
2023-03-27T06:01:13.530Z,2.80
2023-03-27T06:05:15.241Z,3.67
2023-03-27T06:09:16.380Z,4.17
2023-03-27T06:13:18.047Z,4.93
2023-03-27T06:17:19.293Z,3.97
2023-03-27T06:21:21.138Z,3.43
2023-03-27T06:25:25.453Z,2.97
2023-03-27T06:29:28.620Z,3.93
2023-03-27T06:33:30.383Z,4.87
2023-03-27T06:37:33.540Z,3.57
2023-03-27T06:41:35.286Z,3.90
2023-03-27T06:45:46.900Z,5.00
2023-03-27T06:49:48.057Z,4.47
2023-03-27T06:53:49.161Z,3.33
2023-03-27T06:57:52.764Z,4.40
2023-03-27T07:01:53.923Z,4.00
2023-03-27T07:05:55.707Z,4.17
2023-03-27T07:09:57.086Z,3.80
2023-03-27T07:13:58.401Z,4.47
2023-03-27T07:18:02.976Z,5.10
2023-03-27T07:22:04.183Z,5.57
2023-03-27T07:26:06.091Z,5.53
2023-03-27T07:30:11.076Z,4.73
2023-03-27T07:34:12.281Z,4.67
2023-03-27T07:38:14.495Z,4.63
2023-03-27T07:42:15.840Z,4.53
2023-03-27T07:46:17.132Z,4.70
2023-03-27T07:50:21.224Z,5.00
2023-03-27T07:54:24.000Z,5.37
2023-03-27T07:58:25.386Z,5.47
2023-03-27T08:02:26.588Z,4.17
2023-03-27T08:06:27.706Z,4.77
2023-03-27T08:10:28.868Z,4.23
2023-03-27T08:14:30.240Z,4.80
2023-03-27T08:18:31.583Z,4.97
2023-03-27T08:22:32.764Z,4.60
2023-03-27T08:26:34.414Z,5.27
2023-03-27T08:30:35.584Z,4.43
2023-03-27T08:34:38.095Z,4.60
2023-03-27T08:38:42.207Z,4.90
2023-03-27T08:42:45.215Z,4.60
2023-03-27T08:46:52.705Z,4.77
2023-03-27T08:51:04.931Z,3.30
2023-03-27T08:55:17.372Z,4.40
2023-03-27T08:59:21.378Z,3.73
2023-03-27T09:03:32.430Z,4.03
2023-03-27T09:08:01.499Z,3.93
2023-03-27T09:12:23.676Z,4.50
2023-03-27T09:16:31.633Z,3.40
2023-03-27T09:20:42.554Z,3.30
2023-03-27T09:24:46.465Z,2.30
2023-03-27T09:29:02.952Z,2.67
2023-03-27T09:33:05.607Z,3.77
2023-03-27T09:37:16.025Z,3.67
2023-03-27T09:41:40.826Z,4.33
2023-03-27T09:45:43.964Z,3.20
2023-03-27T09:49:50.989Z,2.80
2023-03-27T09:53:58.268Z,3.90
2023-03-27T09:58:12.297Z,3.43
2023-03-27T10:02:31.035Z,2.60
2023-03-27T10:06:50.754Z,1.60
2023-03-27T10:10:59.142Z,2.07
2023-03-27T10:15:01.661Z,2.27
2023-03-27T10:19:03.195Z,3.57
2023-03-27T10:23:09.036Z,2.30
2023-03-27T10:27:14.099Z,1.97
2023-03-27T10:31:28.892Z,2.13
2023-03-27T10:35:40.123Z,2.00
2023-03-27T10:39:43.420Z,2.03
2023-03-27T10:43:46.612Z,2.00
2023-03-27T10:47:51.568Z,1.90
2023-03-27T10:52:05.522Z,2.10
2023-03-27T10:56:13.362Z,2.00
2023-03-27T11:00:25.826Z,2.27
2023-03-27T11:04:42.916Z,2.40
2023-03-27T11:09:01.349Z,4.03
2023-03-27T11:13:06.781Z,1.97
2023-03-27T11:17:10.522Z,2.73
2023-03-27T11:21:15.774Z,2.37
2023-03-27T11:25:23.729Z,2.50
2023-03-27T11:29:31.805Z,2.63
2023-03-27T11:33:45.908Z,3.30
2023-03-27T11:38:02.788Z,2.17
2023-03-27T11:42:13.517Z,2.70
2023-03-27T11:46:36.566Z,2.20
2023-03-27T11:50:51.232Z,3.03
2023-03-27T11:55:15.535Z,2.63
2023-03-27T11:59:37.675Z,2.77
2023-03-27T12:04:04.497Z,2.60
2023-03-27T12:08:16.202Z,2.97
2023-03-27T12:12:46.990Z,2.93
2023-03-27T12:17:00.934Z,3.93
2023-03-27T12:21:17.612Z,2.10
2023-03-27T12:25:37.309Z,2.03
2023-03-27T12:29:51.452Z,2.20
2023-03-27T12:34:01.809Z,1.53
2023-03-27T12:38:07.783Z,2.13
2023-03-27T12:42:18.553Z,2.43
2023-03-27T12:46:27.988Z,2.10
2023-03-27T12:50:36.525Z,2.00
2023-03-27T12:54:38.718Z,2.80
2023-03-27T12:58:40.927Z,2.37
2023-03-27T13:03:19.346Z,2.77
2023-03-27T13:07:33.480Z,2.23
2023-03-27T13:11:50.546Z,2.50
2023-03-27T13:16:11.329Z,2.23
2023-03-27T13:20:25.248Z,2.93
2023-03-27T13:24:46.879Z,3.13
2023-03-27T13:28:51.376Z,3.60
2023-03-27T13:33:11.497Z,4.70
2023-03-27T13:37:16.505Z,3.50
2023-03-27T13:41:40.834Z,3.37
2023-03-27T13:45:51.764Z,3.40
2023-03-27T13:50:22.616Z,3.07
2023-03-27T13:54:30.750Z,2.47
2023-03-27T13:58:52.215Z,3.30
2023-03-27T14:03:11.979Z,2.67
2023-03-27T14:07:42.745Z,2.30
2023-03-27T14:11:53.344Z,2.07
2023-03-27T14:16:21.983Z,2.30
2023-03-27T14:20:26.728Z,2.87
2023-03-27T14:24:46.544Z,2.80
2023-03-27T14:29:01.271Z,2.70
2023-03-27T14:33:06.209Z,2.43
2023-03-27T14:37:29.485Z,2.10
2023-03-27T14:41:31.634Z,2.20
2023-03-27T14:45:36.066Z,2.20
2023-03-27T14:49:40.180Z,2.00
2023-03-27T14:53:44.387Z,2.07
2023-03-27T14:57:48.800Z,2.10
2023-03-27T15:01:52.845Z,1.73
2023-03-27T15:06:14.781Z,2.00
2023-03-27T15:10:23.216Z,1.90
2023-03-27T15:14:26.988Z,2.10
2023-03-27T15:18:37.804Z,2.60
2023-03-27T15:22:42.682Z,2.47
2023-03-27T15:26:44.677Z,2.17
2023-03-27T15:30:51.015Z,2.27
2023-03-27T15:34:57.548Z,2.03
2023-03-27T15:39:00.327Z,2.00
2023-03-27T15:43:06.207Z,2.27
2023-03-27T15:47:25.441Z,1.80
2023-03-27T15:51:30.743Z,2.40
2023-03-27T15:55:38.620Z,1.50
2023-03-27T15:59:52.971Z,1.90
2023-03-27T16:03:47.761Z,1.97
2023-03-27T16:07:48.982Z,1.47
2023-03-27T16:11:50.921Z,1.03
2023-03-27T16:15:57.961Z,1.27
2023-03-27T16:20:12.371Z,1.10
2023-03-27T16:24:13.749Z,1.80
2023-03-27T16:28:17.092Z,0.93
2023-03-27T16:32:20.894Z,1.50
2023-03-27T16:36:25.720Z,1.70
2023-03-27T16:40:26.932Z,1.87
2023-03-27T16:44:27.895Z,1.53
2023-03-27T16:48:29.097Z,1.80
2023-03-27T16:52:31.094Z,3.00
2023-03-27T16:56:34.167Z,2.97
2023-03-27T17:00:35.950Z,3.00
2023-03-27T17:04:37.038Z,4.17
2023-03-27T17:08:38.360Z,3.10
2023-03-27T17:12:39.412Z,2.90
2023-03-27T17:16:40.534Z,3.10
2023-03-27T17:20:41.480Z,3.93
2023-03-27T17:24:55.241Z,4.90
2023-03-27T17:28:47.266Z,4.03
2023-03-27T17:32:48.460Z,5.03
2023-03-27T17:36:54.514Z,3.20
2023-03-27T17:40:53.548Z,2.40
2023-03-27T17:44:54.797Z,3.33
2023-03-27T17:48:57.544Z,2.80
2023-03-27T17:52:58.900Z,2.43
2023-03-27T17:57:00.845Z,2.97
2023-03-27T18:01:18.153Z,3.03
2023-03-27T18:05:19.788Z,2.60
2023-03-27T18:09:20.844Z,4.00
2023-03-27T18:13:22.414Z,2.63
2023-03-27T18:17:23.503Z,3.50
2023-03-27T18:21:25.098Z,5.00
2023-03-27T18:25:26.747Z,4.67
2023-03-27T18:29:29.656Z,3.50
2023-03-27T18:33:31.294Z,23.73
2023-03-27T18:37:34.217Z,6.83
2023-03-27T18:41:35.546Z,7.10
2023-03-27T18:45:36.626Z,6.43
2023-03-27T18:49:38.356Z,10.33
2023-03-27T18:53:40.183Z,14.67
2023-03-27T18:57:41.412Z,4.67
2023-03-27T19:01:43.302Z,4.40
2023-03-27T19:05:44.475Z,4.60
2023-03-27T19:09:46.022Z,4.67
2023-03-27T19:13:47.206Z,5.60
2023-03-27T19:17:48.380Z,21.53
2023-03-27T19:21:50.245Z,29.17
2023-03-27T19:25:51.511Z,10.20
2023-03-27T19:29:53.675Z,11.30
2023-03-27T19:33:54.749Z,7.60
2023-03-27T19:42:06.312Z,23.60
2023-03-27T19:46:16.164Z,23.70
2023-03-27T19:50:11.642Z,10.23
2023-03-27T19:54:13.363Z,13.80
2023-03-27T19:58:14.654Z,9.30
2023-03-27T20:02:15.927Z,10.40
2023-03-27T20:06:18.940Z,16.97
2023-03-27T20:10:21.478Z,17.93
2023-03-27T20:14:22.467Z,18.67
2023-03-27T20:18:23.707Z,10.93
2023-03-27T20:22:26.392Z,10.40
2023-03-27T20:26:28.975Z,9.60
2023-03-27T20:30:31.189Z,9.97
2023-03-27T20:34:32.383Z,7.20
2023-03-27T20:38:35.793Z,6.60
2023-03-27T20:42:42.433Z,17.40
2023-03-27T20:46:50.089Z,8.73
2023-03-27T20:50:51.829Z,7.50
2023-03-27T20:54:53.739Z,8.17
2023-03-27T20:58:54.909Z,6.00
2023-03-27T21:02:56.352Z,7.73
2023-03-27T21:06:58.264Z,9.17
2023-03-27T21:10:59.702Z,11.80
2023-03-27T21:15:00.985Z,10.83
2023-03-27T21:19:02.493Z,9.30
2023-03-27T21:23:03.933Z,5.93
2023-03-27T21:27:05.471Z,9.33
2023-03-27T21:31:08.398Z,11.57
2023-03-27T21:35:09.957Z,16.90
2023-03-27T21:39:11.185Z,8.13
2023-03-27T21:43:12.443Z,15.37
2023-03-27T21:47:14.058Z,8.93
2023-03-27T21:51:15.311Z,13.37
2023-03-27T21:55:16.755Z,13.93
2023-03-27T21:59:18.085Z,10.17
2023-03-27T22:03:19.428Z,23.77
2023-03-27T22:07:20.424Z,15.83
2023-03-27T22:11:21.463Z,17.13
2023-03-27T22:15:22.573Z,14.33
2023-03-27T22:19:23.734Z,17.50
2023-03-27T22:23:25.108Z,14.10
2023-03-27T22:27:26.130Z,25.47
2023-03-27T22:31:28.541Z,19.00
2023-03-27T22:35:29.709Z,19.50
2023-03-27T22:39:31.134Z,20.20
2023-03-27T22:43:32.550Z,13.40
2023-03-27T22:47:33.646Z,33.53
2023-03-27T22:51:34.882Z,16.67
2023-03-27T22:55:36.309Z,18.23
2023-03-27T22:59:37.472Z,9.57
2023-03-27T23:03:39.122Z,18.13
2023-03-27T23:07:40.231Z,11.80
2023-03-27T23:11:43.054Z,9.60
2023-03-27T23:15:44.044Z,12.27
2023-03-27T23:19:45.218Z,8.23
2023-03-27T23:23:46.575Z,25.70
2023-03-27T23:27:47.854Z,14.93
2023-03-27T23:31:49.045Z,10.00
2023-03-27T23:35:55.869Z,8.33
2023-03-27T23:39:56.910Z,8.80
2023-03-27T23:43:58.120Z,9.00
2023-03-27T23:47:59.277Z,9.60
2023-03-27T23:52:00.403Z,7.90
2023-03-27T23:56:02.231Z,10.47
